Terminal Aerodrome Forecast
Issued by NWS Billings, MT

Home | Current Version | Previous Version | Graphics & Text | Print | Product List | Glossary On
Versions: 1 2 3 4 5 6 7 8 9 10 11 12 13 14 15 16 17 18 19 20 21 22
000
FTUS45 KBYZ 251120
TAFMLS
TAF
KMLS 251120Z 2512/2612 30010KT P6SM FEW120 SCT250
     FM251700 26018KT P6SM SCT060 BKN120
     FM252000 29020G35KT P6SM SCT100 SCT250
     FM260300 25011KT P6SM SCT100 SCT250=

USA.gov is the U.S. government's official web portal to all federal, state and local government web resources and services.